Time;durP1;ratioP1;P1;durP2;ratioP2;P2;SDS_P1;SDS_P2;PMS_P1;PMS_P2;Temp;Humidity;BMP_temperature;BMP_pressure;BME280_temperature;BME280_humidity;BME280_pressure;Samples;Min_cycle;Max_cycle;Signal;HPM_P1;HPM_P2
2022/12/20 00:01:36;;;;;;;12.32;9.07;;;;;;;4.77;100.00;100898.31;6243751;22;20022;-76
2022/12/20 00:04:05;;;;;;;15.75;9.70;;;;;;;4.75;100.00;100900.03;6217326;22;20529;-76
2022/12/20 00:06:35;;;;;;;13.23;8.82;;;;;;;4.71;100.00;100900.81;6218162;22;20477;-78
2022/12/20 00:09:05;;;;;;;17.70;10.95;;;;;;;4.80;100.00;100907.03;6242734;22;20369;-77
2022/12/20 00:11:31;;;;;;;15.77;10.27;;;;;;;4.82;100.00;100907.06;6242825;22;20055;-78
2022/12/20 00:13:58;;;;;;;16.98;10.38;;;;;;;4.79;100.00;100900.09;6242582;22;20011;-80
2022/12/20 00:16:28;;;;;;;16.05;10.05;;;;;;;4.88;100.00;100893.34;6218753;22;20016;-78
2022/12/20 00:18:58;;;;;;;18.38;10.68;;;;;;;5.07;100.00;100899.72;6243261;22;20014;-76
2022/12/20 00:21:25;;;;;;;15.88;9.80;;;;;;;5.10;100.00;100869.53;6244374;22;20026;-78
2022/12/20 00:23:53;;;;;;;19.48;12.10;;;;;;;5.21;100.00;100881.81;6217685;22;20066;-79
2022/12/20 00:26:25;;;;;;;20.33;11.70;;;;;;;5.23;100.00;100875.78;6243955;22;20015;-76
2022/12/20 00:28:53;;;;;;;24.60;13.23;;;;;;;5.21;100.00;100880.06;6243655;22;20022;-77
2022/12/20 00:31:22;;;;;;;19.35;12.00;;;;;;;5.32;100.00;100876.78;6243065;22;20022;-78
2022/12/20 00:33:51;;;;;;;16.27;10.55;;;;;;;5.36;100.00;100879.47;6239928;22;20353;-78
2022/12/20 00:36:19;;;;;;;19.50;11.98;;;;;;;5.26;100.00;100882.75;6241628;22;20012;-76
2022/12/20 00:38:48;;;;;;;19.50;11.93;;;;;;;5.28;100.00;100879.34;6242994;22;20008;-76
2022/12/20 00:41:22;;;;;;;15.07;10.38;;;;;;;5.24;100.00;100874.06;6244769;22;20012;-77
2022/12/20 00:43:49;;;;;;;17.77;10.75;;;;;;;5.22;100.00;100870.59;6243252;22;20023;-76
2022/12/20 00:46:18;;;;;;;22.38;12.40;;;;;;;5.17;100.00;100859.25;6241999;22;20098;-77
2022/12/20 00:48:44;;;;;;;18.27;11.38;;;;;;;5.07;100.00;100859.09;6243296;22;20011;-76
2022/12/20 00:51:15;;;;;;;20.25;11.85;;;;;;;4.99;100.00;100877.97;6243442;22;20383;-76
2022/12/20 00:53:43;;;;;;;18.55;10.50;;;;;;;5.01;100.00;100864.19;6242173;22;20489;-76
2022/12/20 00:56:09;;;;;;;18.27;12.25;;;;;;;5.01;100.00;100860.72;6241512;22;20024;-76
2022/12/20 00:58:39;;;;;;;18.98;11.23;;;;;;;4.96;100.00;100869.28;6237744;23;20588;-77
2022/12/20 01:01:14;;;;;;;15.02;10.90;;;;;;;4.92;100.00;100867.47;6213959;23;20241;-76
2022/12/20 01:03:41;;;;;;;16.67;10.23;;;;;;;4.89;100.00;100863.94;6213954;23;20040;-77
2022/12/20 01:06:08;;;;;;;15.15;11.30;;;;;;;4.90;100.00;100864.00;6189776;23;20397;-77
2022/12/20 01:08:34;;;;;;;22.17;12.20;;;;;;;4.86;100.00;100863.91;6187556;23;20070;-79
2022/12/20 01:11:03;;;;;;;17.67;10.88;;;;;;;4.86;100.00;100864.75;6238637;23;20016;-77
2022/12/20 01:13:32;;;;;;;17.13;9.68;;;;;;;4.88;100.00;100863.09;6237769;23;20012;-77
2022/12/20 01:16:13;;;;;;;24.90;11.63;;;;;;;4.95;100.00;100864.97;6211366;23;20020;-76
2022/12/20 01:18:40;;;;;;;18.17;10.50;;;;;;;4.91;100.00;100863.13;6212003;23;20487;-77
2022/12/20 01:21:11;;;;;;;15.70;10.70;;;;;;;5.00;100.00;100864.16;6185054;23;20309;-78
2022/12/20 01:23:39;;;;;;;24.10;10.95;;;;;;;5.04;100.00;100852.97;6209926;23;20020;-79
2022/12/20 01:26:09;;;;;;;16.25;10.10;;;;;;;5.07;100.00;100853.03;6236004;23;20011;-77
2022/12/20 01:28:39;;;;;;;16.63;9.32;;;;;;;5.13;100.00;100851.41;6237016;23;20016;-76
2022/12/20 01:31:12;;;;;;;17.05;10.07;;;;;;;5.18;100.00;100851.47;6234666;23;20036;-76
2022/12/20 01:33:41;;;;;;;18.33;10.38;;;;;;;5.22;100.00;100849.81;6209865;23;20094;-77
2022/12/20 01:36:15;;;;;;;14.98;9.68;;;;;;;5.29;100.00;100847.34;6236631;23;20446;-77
2022/12/20 01:38:43;;;;;;;17.30;10.00;;;;;;;5.39;100.00;100844.91;6235290;23;20078;-78
2022/12/20 01:41:17;;;;;;;15.10;10.68;;;;;;;5.41;100.00;100840.56;6185227;23;20428;-76
2022/12/20 01:43:54;;;;;;;14.10;9.88;;;;;;;5.54;100.00;100836.44;6212231;23;20012;-76
2022/12/20 01:50:17;;;;;;;15.07;10.10;;;;;;;5.67;100.00;100828.00;6051661;23;20018;-77
2022/12/20 01:52:50;;;;;;;16.17;10.27;;;;;;;5.70;100.00;100829.78;6214355;23;20023;-76
2022/12/20 01:55:27;;;;;;;19.00;10.48;;;;;;;5.71;100.00;100818.50;6210429;23;20100;-76
2022/12/20 01:58:02;;;;;;;16.92;10.65;;;;;;;5.74;100.00;100822.03;6242953;22;20031;-76
2022/12/20 02:00:30;;;;;;;15.68;9.77;;;;;;;5.81;100.00;100815.19;6241762;22;20094;-76
2022/12/20 02:03:01;;;;;;;14.93;9.77;;;;;;;5.91;100.00;100813.59;6241700;22;20381;-77
2022/12/20 02:05:31;;;;;;;15.25;9.75;;;;;;;5.92;100.00;100804.94;6240548;22;20022;-77
2022/12/20 02:08:00;;;;;;;14.90;9.10;;;;;;;5.92;100.00;100813.59;6243087;22;20276;-76
2022/12/20 02:10:54;;;;;;;14.85;9.38;;;;;;;5.89;100.00;100813.56;6240939;22;20098;-77
2022/12/20 02:14:01;;;;;;;16.33;10.35;;;;;;;5.91;100.00;100811.84;6267635;22;20020;-77
2022/12/20 02:16:33;;;;;;;14.73;9.20;;;;;;;5.96;100.00;100830.97;6242234;22;20007;-77
2022/12/20 02:19:43;;;;;;;13.48;8.57;;;;;;;6.02;100.00;100827.59;6242910;22;20430;-76
2022/12/20 02:22:27;;;;;;;13.45;8.60;;;;;;;6.03;100.00;100826.75;6164197;22;20020;-78
2022/12/20 02:25:15;;;;;;;15.88;9.75;;;;;;;6.06;100.00;100821.63;6214418;22;20073;-77
2022/12/20 02:27:56;;;;;;;13.55;9.73;;;;;;;6.04;100.00;100812.06;6244233;22;20015;-77
2022/12/20 02:30:28;;;;;;;10.73;8.38;;;;;;;6.05;100.00;100817.25;6244183;22;20015;-78
2022/12/20 02:33:04;;;;;;;15.32;9.27;;;;;;;6.05;100.00;100809.47;6244065;22;20022;-77
2022/12/20 02:35:36;;;;;;;15.18;9.13;;;;;;;6.03;100.00;100807.69;6241462;22;20057;-77
2022/12/20 02:38:31;;;;;;;14.55;8.63;;;;;;;6.00;100.00;100807.66;6218101;22;20116;-77
2022/12/20 02:41:07;;;;;;;12.95;8.75;;;;;;;6.06;100.00;100812.91;6243705;22;20020;-76
2022/12/20 02:46:26;;;;;;;13.90;9.60;;;;;;;6.20;100.00;100800.97;6222064;22;20035;-77
2022/12/20 02:48:56;;;;;;;11.93;8.35;;;;;;;6.21;100.00;100799.25;6216164;22;20019;-77
2022/12/20 02:51:26;;;;;;;13.88;8.90;;;;;;;6.22;100.00;100804.47;6243448;22;20011;-80
2022/12/20 02:53:54;;;;;;;15.73;9.43;;;;;;;6.24;100.00;100815.72;6217968;22;20035;-77
2022/12/20 02:56:40;;;;;;;12.65;9.00;;;;;;;6.26;100.00;100805.38;6240209;22;20259;-76
2022/12/20 02:59:15;;;;;;;13.68;8.68;;;;;;;6.24;100.00;100799.28;6216547;22;20638;-76
2022/12/20 03:01:51;;;;;;;14.63;8.63;;;;;;;6.19;100.00;100808.75;6242418;22;20023;-78
2022/12/20 03:07:16;;;;;;;8.68;6.45;;;;;;;6.11;100.00;100808.66;6204770;22;20038;-78
2022/12/20 03:09:45;;;;;;;12.77;7.78;;;;;;;6.08;100.00;100809.50;6242654;22;20098;-78
2022/12/20 03:12:18;;;;;;;11.48;7.53;;;;;;;6.11;100.00;100806.06;6218343;22;20050;-77
2022/12/20 03:14:47;;;;;;;13.57;8.52;;;;;;;6.11;100.00;100812.16;6216097;22;20011;-79
2022/12/20 03:17:14;;;;;;;11.48;7.97;;;;;;;6.11;100.00;100795.66;6243674;22;20388;-78
2022/12/20 03:19:40;;;;;;;12.05;8.15;;;;;;;6.09;100.00;100790.44;6244705;22;20515;-77
2022/12/20 03:23:20;;;;;;;14.68;8.55;;;;;;;6.12;100.00;100793.06;6243438;22;20075;-79
2022/12/20 03:29:30;;;;;;;12.80;8.02;;;;;;;6.16;100.00;100785.34;6002820;23;20657;-76
2022/12/20 03:32:02;;;;;;;15.00;7.63;;;;;;;6.14;100.00;100798.31;6062174;23;20037;-79
2022/12/20 03:34:29;;;;;;;12.10;8.60;;;;;;;6.10;100.00;100793.91;6178291;22;20043;-77
2022/12/20 03:36:55;;;;;;;11.65;9.05;;;;;;;6.07;100.00;100792.16;6243837;22;20018;-76
2022/12/20 03:39:24;;;;;;;13.82;8.77;;;;;;;6.07;100.00;100789.53;6217711;22;20046;-77
2022/12/20 03:41:51;;;;;;;15.23;11.10;;;;;;;6.07;100.00;100792.16;6242901;22;20353;-77
2022/12/20 03:44:18;;;;;;;14.88;9.68;;;;;;;6.10;100.00;100788.72;6217254;22;20015;-76
2022/12/20 03:46:55;;;;;;;11.73;7.97;;;;;;;6.13;100.00;100800.03;6242226;22;20404;-77
2022/12/20 03:49:26;;;;;;;12.13;8.45;;;;;;;6.10;100.00;100792.19;6234854;22;20011;-76
2022/12/20 03:51:53;;;;;;;14.50;9.07;;;;;;;6.08;100.00;100795.63;6242114;22;20012;-77
2022/12/20 03:54:23;;;;;;;12.10;9.48;;;;;;;6.06;100.00;100785.22;6241062;22;20426;-76
2022/12/20 04:02:38;;;;;;;13.93;8.98;;;;;;;6.01;100.00;100778.22;6235611;22;20027;-77
2022/12/20 04:05:05;;;;;;;11.85;7.97;;;;;;;6.04;100.00;100780.88;6239187;22;20016;-78
2022/12/20 04:07:32;;;;;;;14.15;8.93;;;;;;;6.06;100.00;100786.94;6243661;22;20091;-77
2022/12/20 04:09:59;;;;;;;12.95;8.35;;;;;;;6.08;100.00;100787.84;6242370;22;20101;-76
2022/12/20 04:12:32;;;;;;;14.82;10.18;;;;;;;6.15;100.00;100783.56;6242821;22;20015;-78
2022/12/20 04:15:05;;;;;;;;;;;;;;;6.26;100.00;100789.78;6243122;22;20015;-77
2022/12/20 04:17:31;;;;;;;13.02;8.43;;;;;;;6.32;100.00;100791.56;6244871;22;19922;-77
2022/12/20 04:20:17;;;;;;;11.40;7.63;;;;;;;6.40;100.00;100802.91;6244425;22;20015;-78
2022/12/20 04:22:49;;;;;;;16.48;9.10;;;;;;;6.43;100.00;100806.41;6246614;22;20015;-76
2022/12/20 04:25:23;;;;;;;12.55;9.23;;;;;;;6.46;100.00;100801.22;6241705;22;20082;-77
2022/12/20 04:27:50;;;;;;;12.77;8.10;;;;;;;6.49;100.00;100808.19;6242895;22;20065;-77
2022/12/20 04:30:16;;;;;;;13.73;8.52;;;;;;;6.53;100.00;100815.19;6240379;22;20019;-78
2022/12/20 04:32:45;;;;;;;12.80;8.43;;;;;;;6.56;100.00;100812.63;6225192;22;20016;-77
2022/12/20 04:35:12;;;;;;;14.63;9.25;;;;;;;6.65;100.00;100809.25;6242488;22;20056;-77
2022/12/20 04:37:39;;;;;;;15.27;9.05;;;;;;;6.68;100.00;100811.88;6243287;22;20330;-77
2022/12/20 04:40:06;;;;;;;16.27;9.88;;;;;;;6.73;100.00;100814.53;6216979;22;20020;-76
2022/12/20 04:42:33;;;;;;;11.60;8.32;;;;;;;6.66;100.00;100812.72;6242428;22;20015;-77
2022/12/20 04:44:59;;;;;;;14.80;10.43;;;;;;;6.66;100.00;100799.69;6242480;22;20451;-77
2022/12/20 04:47:26;;;;;;;12.52;9.55;;;;;;;6.65;100.00;100801.44;6242698;22;20585;-77
2022/12/20 04:55:09;;;;;;;12.75;8.35;;;;;;;6.76;100.00;100799.78;6032548;23;20108;-78
2022/12/20 04:57:36;;;;;;;16.73;10.75;;;;;;;6.78;100.00;100807.63;6113156;23;20025;-78
2022/12/20 05:00:03;;;;;;;14.52;8.50;;;;;;;6.78;100.00;100811.09;6092961;23;20018;-78
2022/12/20 05:02:30;;;;;;;14.98;9.65;;;;;;;6.77;100.00;100811.94;6173845;23;20095;-78
2022/12/20 05:04:56;;;;;;;12.90;8.82;;;;;;;6.77;100.00;100800.69;6241327;23;20083;-79
2022/12/20 05:07:23;;;;;;;17.13;9.73;;;;;;;6.80;100.00;100811.09;6220763;23;20012;-78
2022/12/20 05:09:49;;;;;;;16.02;9.60;;;;;;;6.83;100.00;100799.84;6215322;23;20086;-78
2022/12/20 05:12:16;;;;;;;14.88;9.00;;;;;;;6.83;100.00;100798.16;6214670;23;20453;-78
2022/12/20 05:14:43;;;;;;;11.73;8.73;;;;;;;6.83;100.00;100803.34;6213533;23;20035;-78
2022/12/20 05:17:09;;;;;;;13.30;9.52;;;;;;;6.86;100.00;100805.97;6239565;23;20051;-77
2022/12/20 05:19:36;;;;;;;13.82;8.93;;;;;;;6.90;100.00;100805.13;6213184;23;20112;-78
2022/12/20 05:28:32;;;;;;;12.80;8.98;;;;;;;6.93;100.00;100784.31;6216181;23;20023;-78
2022/12/20 05:30:58;;;;;;;14.20;8.80;;;;;;;6.91;100.00;100778.25;6212872;23;20848;-77
2022/12/20 05:33:25;;;;;;;18.02;9.80;;;;;;;6.90;100.00;100784.31;6210857;23;20020;-76
2022/12/20 05:35:52;;;;;;;14.05;8.82;;;;;;;6.89;100.00;100786.91;6210457;23;20305;-77
2022/12/20 05:38:19;;;;;;;10.65;8.85;;;;;;;6.89;100.00;100787.75;6187348;23;20031;-77
2022/12/20 05:40:48;;;;;;;16.73;9.88;;;;;;;6.87;100.00;100780.81;6212688;23;20023;-77
2022/12/20 05:43:16;;;;;;;20.08;11.15;;;;;;;6.85;100.00;100790.34;6237803;23;20087;-76
2022/12/20 05:45:52;;;;;;;12.82;9.23;;;;;;;6.86;100.00;100792.94;6212665;23;20043;-76
2022/12/20 05:48:20;;;;;;;11.95;8.85;;;;;;;6.86;100.00;100802.50;6187364;23;20019;-76
2022/12/20 05:50:47;;;;;;;12.52;9.00;;;;;;;6.86;100.00;100797.31;6212952;23;20179;-77
2022/12/20 05:53:16;;;;;;;13.40;8.90;;;;;;;6.85;100.00;100795.53;6211242;23;20038;-77
2022/12/20 05:55:50;;;;;;;13.32;8.77;;;;;;;6.83;100.00;100789.44;6207824;23;20012;-76
2022/12/20 05:58:17;;;;;;;14.75;10.25;;;;;;;6.83;100.00;100797.25;6211006;23;20592;-76
2022/12/20 06:00:46;;;;;;;14.85;9.15;;;;;;;6.85;100.00;100791.19;6213198;23;20331;-77
2022/12/20 06:03:13;;;;;;;10.73;8.90;;;;;;;6.91;100.00;100795.56;6212746;23;20062;-78
2022/12/20 06:05:41;;;;;;;13.68;9.45;;;;;;;6.95;100.00;100798.22;6187837;23;20020;-77
2022/12/20 06:08:08;;;;;;;16.42;9.27;;;;;;;6.91;100.00;100790.38;6216089;23;20062;-76
2022/12/20 06:10:35;;;;;;;16.13;10.68;;;;;;;6.92;100.00;100792.13;6190129;23;20107;-77
2022/12/20 06:13:03;;;;;;;13.07;9.27;;;;;;;6.92;100.00;100786.91;6215027;23;20427;-77
2022/12/20 06:15:31;;;;;;;13.80;9.75;;;;;;;6.92;100.00;100786.91;6216078;23;20032;-77
2022/12/20 06:17:58;;;;;;;17.70;11.38;;;;;;;6.94;100.00;100780.00;6190417;23;20008;-77
2022/12/20 06:20:26;;;;;;;16.90;10.00;;;;;;;6.95;100.00;100782.63;6215240;23;20027;-77
2022/12/20 06:23:30;;;;;;;14.48;10.10;;;;;;;7.01;100.00;100779.19;6238072;23;20012;-76
2022/12/20 06:26:35;;;;;;;13.50;9.82;;;;;;;6.99;100.00;100778.31;6151611;23;20058;-76
2022/12/20 06:29:12;;;;;;;15.43;9.13;;;;;;;6.94;100.00;100778.25;6189723;23;20059;-77
2022/12/20 06:32:08;;;;;;;13.98;9.50;;;;;;;6.98;100.00;100788.72;6215430;23;20019;-77
2022/12/20 06:34:38;;;;;;;13.15;9.80;;;;;;;7.00;100.00;100771.38;6185433;23;20309;-77
2022/12/20 06:37:21;;;;;;;16.08;10.63;;;;;;;7.07;100.00;100763.63;6187196;23;20103;-78
2022/12/20 06:40:32;;;;;;;14.75;10.10;;;;;;;7.09;100.00;100769.72;6237677;23;20103;-76
2022/12/20 06:43:14;;;;;;;15.05;10.98;;;;;;;7.08;100.00;100764.50;6206152;23;20659;-78
2022/12/20 06:46:06;;;;;;;21.77;12.27;;;;;;;7.08;100.00;100770.56;6214550;23;20439;-77
2022/12/20 06:49:04;;;;;;;14.00;8.70;;;;;;;7.08;100.00;100767.97;6212923;23;20040;-78
2022/12/20 06:51:44;;;;;;;14.20;10.00;;;;;;;7.05;100.00;100767.06;6238492;23;20023;-78
2022/12/20 06:54:15;;;;;;;12.98;9.15;;;;;;;7.09;100.00;100768.81;6238544;23;20022;-77
2022/12/20 06:56:43;;;;;;;13.02;9.43;;;;;;;7.12;100.00;100768.88;6210998;23;20016;-78
2022/12/20 06:59:12;;;;;;;13.35;9.55;;;;;;;7.13;100.00;100760.16;6186728;23;20089;-78
2022/12/20 07:01:57;;;;;;;12.13;9.25;;;;;;;7.16;100.00;100754.13;6211370;22;20020;-78
2022/12/20 07:04:24;;;;;;;12.05;8.63;;;;;;;7.19;100.00;100746.34;6212690;23;20020;-78
2022/12/20 07:06:51;;;;;;;13.70;8.23;;;;;;;7.18;100.00;100753.25;6212649;23;20335;-78
2022/12/20 07:09:17;;;;;;;12.68;8.55;;;;;;;7.19;100.00;100757.63;6188438;23;20012;-77
2022/12/20 07:11:44;;;;;;;12.43;9.05;;;;;;;7.22;100.00;100754.16;6213889;23;20205;-76
2022/12/20 07:14:10;;;;;;;16.27;8.65;;;;;;;7.23;100.00;100766.31;6213291;23;20716;-77
2022/12/20 07:16:42;;;;;;;13.27;9.52;;;;;;;7.23;100.00;100761.13;6165030;23;20024;-77
2022/12/20 07:19:12;;;;;;;13.27;8.80;;;;;;;7.23;100.00;100745.50;6241169;23;20012;-79
2022/12/20 07:21:38;;;;;;;15.35;9.65;;;;;;;7.24;100.00;100740.28;6240118;23;20517;-76
2022/12/20 07:24:08;;;;;;;13.43;9.38;;;;;;;7.23;100.00;100743.75;6190386;23;20008;-77
2022/12/20 07:26:35;;;;;;;9.93;8.82;;;;;;;7.19;100.00;100739.38;6240293;23;20047;-77
2022/12/20 07:29:02;;;;;;;12.38;9.27;;;;;;;7.19;100.00;100741.13;6189467;23;20020;-77
2022/12/20 07:31:32;;;;;;;14.10;8.85;;;;;;;7.18;100.00;100757.63;6240060;23;20043;-78
2022/12/20 07:33:58;;;;;;;16.00;9.55;;;;;;;7.18;100.00;100748.06;6214462;23;20016;-77
2022/12/20 07:36:25;;;;;;;17.20;10.13;;;;;;;7.22;100.00;100741.16;6214088;23;20016;-77
2022/12/20 07:38:51;;;;;;;13.82;8.70;;;;;;;7.27;100.00;100731.63;6190268;23;20016;-76
2022/12/20 07:41:18;;;;;;;13.88;8.82;;;;;;;7.28;100.00;100736.84;6215717;23;20016;-76
2022/12/20 07:43:45;;;;;;;14.90;9.43;;;;;;;7.33;100.00;100733.41;6214970;23;20012;-77
2022/12/20 07:46:14;;;;;;;14.90;9.50;;;;;;;7.37;100.00;100733.44;6189992;23;20035;-77
2022/12/20 07:48:41;;;;;;;12.68;8.60;;;;;;;7.48;100.00;100732.63;6189543;23;20024;-77
2022/12/20 07:51:19;;;;;;;15.35;9.77;;;;;;;7.56;100.00;100742.22;6190004;23;20103;-76
2022/12/20 07:53:51;;;;;;;13.27;9.13;;;;;;;7.61;100.00;100737.00;6216090;23;20091;-77
2022/12/20 07:56:21;;;;;;;11.82;8.18;;;;;;;7.61;100.00;100737.00;6239012;23;20100;-77
2022/12/20 07:58:50;;;;;;;19.55;10.02;;;;;;;7.58;100.00;100742.22;6215353;23;20020;-77
2022/12/20 08:01:16;;;;;;;13.85;9.30;;;;;;;7.59;100.00;100744.81;6214077;23;20016;-76
2022/12/20 08:03:48;;;;;;;14.68;8.95;;;;;;;7.59;100.00;100749.19;6212871;23;20442;-76
2022/12/20 08:06:16;;;;;;;14.30;8.98;;;;;;;7.57;100.00;100757.00;6214849;23;20045;-76
2022/12/20 08:08:50;;;;;;;13.93;9.10;;;;;;;7.58;100.00;100750.91;6214849;23;20388;-78
2022/12/20 08:11:18;;;;;;;14.93;8.40;;;;;;;7.61;100.00;100740.50;6214475;23;20395;-77
2022/12/20 08:13:45;;;;;;;11.52;7.85;;;;;;;7.70;100.00;100737.06;6215529;23;20099;-76
2022/12/20 08:16:12;;;;;;;13.10;8.45;;;;;;;7.79;100.00;100744.03;6190207;23;20016;-76
2022/12/20 08:18:38;;;;;;;11.82;9.40;;;;;;;7.81;100.00;100747.53;6191392;23;20038;-78
2022/12/20 08:21:05;;;;;;;13.80;9.02;;;;;;;7.78;100.00;100732.75;6216301;23;20008;-78
2022/12/20 08:23:32;;;;;;;11.57;8.40;;;;;;;7.81;100.00;100733.63;6214076;23;20091;-77
2022/12/20 08:26:02;;;;;;;10.85;8.02;;;;;;;7.81;100.00;100729.28;6213549;23;20020;-78
2022/12/20 08:28:28;;;;;;;11.02;7.53;;;;;;;7.78;100.00;100732.75;6214562;23;20110;-78
2022/12/20 08:31:05;;;;;;;14.52;8.85;;;;;;;7.79;100.00;100728.41;6215187;23;20126;-76
2022/12/20 08:33:33;;;;;;;9.25;6.50;;;;;;;7.78;100.00;100721.44;6189395;23;20809;-77
2022/12/20 08:36:04;;;;;;;10.55;8.05;;;;;;;7.76;100.00;100720.59;6188786;23;20016;-76
2022/12/20 08:38:31;;;;;;;14.07;8.30;;;;;;;7.73;100.00;100716.22;6214485;23;20107;-76
2022/12/20 08:41:13;;;;;;;13.70;8.30;;;;;;;7.73;100.00;100718.84;6216739;23;20012;-77
2022/12/20 08:43:41;;;;;;;11.68;7.80;;;;;;;7.75;100.00;100716.22;6242139;23;20015;-77
2022/12/20 08:46:09;;;;;;;9.35;7.50;;;;;;;7.80;100.00;100698.88;6215394;23;20390;-76
2022/12/20 08:48:36;;;;;;;12.68;8.10;;;;;;;7.86;100.00;100693.69;6197131;23;20035;-76
2022/12/20 08:51:09;;;;;;;13.65;7.88;;;;;;;7.90;100.00;100702.38;6215660;23;20020;-77
2022/12/20 08:53:36;;;;;;;12.50;7.43;;;;;;;7.93;100.00;100707.63;6240082;23;20008;-76
2022/12/20 08:56:30;;;;;;;;;;;;;;;;;;;;;
2022/12/20 08:59:18;;;;;;;11.55;7.38;;;;;;;7.95;100.00;100698.94;6240808;23;20443;-77
2022/12/20 09:01:45;;;;;;;13.98;7.03;;;;;;;7.99;100.00;100692.00;6213762;23;20023;-76
2022/12/20 09:04:15;;;;;;;11.48;7.28;;;;;;;7.99;100.00;100697.22;6239727;23;20016;-77
2022/12/20 09:06:42;;;;;;;12.90;6.53;;;;;;;8.04;100.00;100699.81;6240472;23;20016;-76
2022/12/20 09:09:09;;;;;;;13.07;7.40;;;;;;;8.06;100.00;100690.25;6214469;23;20489;-77
2022/12/20 09:11:36;;;;;;;9.10;6.82;;;;;;;8.07;100.00;100698.09;6214415;23;20023;-77
2022/12/20 09:14:07;;;;;;;9.20;6.90;;;;;;;8.10;100.00;100718.09;6240647;23;20016;-77
2022/12/20 09:16:34;;;;;;;11.63;7.68;;;;;;;8.09;100.00;100722.41;6188692;23;20323;-77
2022/12/20 09:19:05;;;;;;;10.68;7.28;;;;;;;8.10;100.00;100710.25;6212769;23;20401;-77
2022/12/20 09:21:35;;;;;;;17.02;7.47;;;;;;;8.06;100.00;100701.56;6214818;23;20607;-76
2022/12/20 09:24:02;;;;;;;9.98;7.70;;;;;;;8.07;100.00;100682.44;6189189;23;20019;-78
2022/12/20 09:26:34;;;;;;;11.57;6.18;;;;;;;8.07;100.00;100695.47;6239765;23;20012;-78
2022/12/20 09:29:01;;;;;;;8.18;5.82;;;;;;;8.08;100.00;100683.28;6215274;23;20024;-77
2022/12/20 09:31:28;;;;;;;11.35;7.30;;;;;;;8.08;100.00;100684.19;6214287;23;20008;-78
2022/12/20 09:33:57;;;;;;;10.45;7.80;;;;;;;8.11;100.00;100675.50;6213813;23;20382;-78
2022/12/20 09:36:28;;;;;;;10.15;7.60;;;;;;;8.12;100.00;100666.78;6212337;23;20016;-78
2022/12/20 09:39:08;;;;;;;;;;;;;;;;;;;;;
2022/12/20 09:41:43;;;;;;;9.10;6.50;;;;;;;8.16;100.00;100673.78;6237271;23;20020;-76
2022/12/20 09:44:32;;;;;;;7.70;5.88;;;;;;;8.16;100.00;100675.50;6213921;23;20016;-76
2022/12/20 09:47:07;;;;;;;9.75;6.68;;;;;;;8.15;100.00;100669.41;6213665;23;20035;-78
2022/12/20 09:49:41;;;;;;;8.68;6.75;;;;;;;8.16;100.00;100671.16;6213759;23;20039;-77
2022/12/20 09:52:50;;;;;;;8.10;6.82;;;;;;;8.21;100.00;100660.72;6237884;23;20028;-77
2022/12/20 09:55:36;;;;;;;10.68;6.63;;;;;;;8.27;100.00;100655.53;6238309;23;20004;-77
2022/12/20 09:58:50;;;;;;;10.63;7.10;;;;;;;8.33;100.00;100652.91;6186415;23;20016;-78
2022/12/20 10:01:48;;;;;;;10.70;6.78;;;;;;;8.40;100.00;100651.19;6210903;23;20016;-77
2022/12/20 10:04:38;;;;;;;7.80;6.40;;;;;;;8.46;100.00;100648.59;6210065;23;20423;-77
2022/12/20 10:07:33;;;;;;;11.30;6.18;;;;;;;8.53;100.00;100644.25;6186328;23;20040;-77
2022/12/20 10:10:27;;;;;;;9.20;5.97;;;;;;;8.54;99.43;100651.19;6212853;23;20435;-76
2022/12/20 10:13:21;;;;;;;6.85;5.50;;;;;;;8.52;99.73;100640.75;6240054;23;20505;-78
2022/12/20 10:16:08;;;;;;;10.10;5.70;;;;;;;8.55;99.49;100639.88;6213265;23;20012;-77
2022/12/20 10:19:12;;;;;;;7.68;5.40;;;;;;;8.55;99.64;100634.66;6211998;23;20810;-76
2022/12/20 10:21:54;;;;;;;10.00;6.47;;;;;;;8.64;98.95;100629.44;6239381;23;20893;-76
2022/12/20 10:24:35;;;;;;;8.00;5.90;;;;;;;8.74;98.08;100625.94;6212020;23;20018;-76
2022/12/20 10:27:20;;;;;;;6.85;5.40;;;;;;;8.80;97.01;100608.53;6238023;23;20020;-77
2022/12/20 10:29:48;;;;;;;7.90;5.97;;;;;;;8.83;96.43;100609.41;6211840;23;20013;-78
2022/12/20 10:32:22;;;;;;;8.38;6.13;;;;;;;8.89;96.37;100611.13;6238042;23;20087;-77
2022/12/20 10:35:27;;;;;;;6.65;6.00;;;;;;;8.88;96.58;100612.88;6237963;23;20016;-76
2022/12/20 10:38:03;;;;;;;5.80;5.15;;;;;;;8.91;97.00;100619.81;6188002;23;20012;-76
2022/12/20 10:40:37;;;;;;;6.30;5.03;;;;;;;8.93;97.05;100618.94;6187716;23;20024;-76
2022/12/20 10:43:06;;;;;;;7.53;5.28;;;;;;;8.95;96.97;100618.94;6186990;23;20016;-77
2022/12/20 10:45:37;;;;;;;6.60;4.75;;;;;;;9.00;96.45;100611.97;6185620;23;20108;-77
2022/12/20 10:48:37;;;;;;;6.55;5.70;;;;;;;9.05;96.14;100614.56;6212886;23;20016;-76
2022/12/20 10:51:11;;;;;;;7.43;5.30;;;;;;;9.09;95.90;100621.50;6213792;23;20027;-76
2022/12/20 10:53:52;;;;;;;;;;;;;;;9.13;95.58;100615.41;6241357;23;20378;-77
2022/12/20 10:56:35;;;;;;;9.45;5.25;;;;;;;9.17;95.28;100614.50;6240917;23;20231;-76
2022/12/20 10:59:26;;;;;;;7.57;4.85;;;;;;;9.23;94.58;100609.28;6240210;23;20019;-77
2022/12/20 11:01:53;;;;;;;6.45;4.63;;;;;;;9.29;94.09;100605.75;6238481;22;20043;-76
2022/12/20 11:04:39;;;;;;;8.98;4.30;;;;;;;9.37;93.78;100598.78;6187787;23;20012;-77
2022/12/20 11:07:25;;;;;;;7.57;4.35;;;;;;;9.45;93.13;100590.88;6213576;23;20040;-77
2022/12/20 11:09:57;;;;;;;7.22;4.75;;;;;;;9.58;92.01;100582.09;6214401;23;20446;-77
2022/12/20 11:13:24;;;;;;;7.55;4.85;;;;;;;9.66;91.42;100582.06;6188911;23;20329;-76
2022/12/20 11:16:00;;;;;;;7.13;5.40;;;;;;;9.72;90.80;100586.38;6183777;23;20012;-77
2022/12/20 11:18:56;;;;;;;16.95;5.70;;;;;;;9.78;90.63;100583.72;6214138;23;20627;-77
2022/12/20 11:21:44;;;;;;;6.75;4.55;;;;;;;9.84;90.41;100569.72;6212004;23;20315;-76
2022/12/20 11:24:35;;;;;;;8.40;4.65;;;;;;;9.89;90.36;100576.66;6188712;23;20027;-77
2022/12/20 11:27:43;;;;;;;7.40;5.05;;;;;;;9.91;90.15;100574.91;6189122;23;20016;-79
2022/12/20 11:30:39;;;;;;;8.50;5.50;;;;;;;9.93;89.89;100572.25;6189135;23;20016;-77
2022/12/20 11:33:43;;;;;;;15.73;5.32;;;;;;;9.92;90.19;100567.91;6212850;23;20020;-76
2022/12/20 11:36:57;;;;;;;9.20;4.70;;;;;;;9.89;90.33;100566.19;6211348;23;20085;-77
2022/12/20 11:39:38;;;;;;;13.18;5.30;;;;;;;9.91;90.37;100561.81;6189276;23;20013;-76
2022/12/20 11:42:42;;;;;;;6.53;4.35;;;;;;;9.95;89.79;100554.81;6238116;23;20740;-77
2022/12/20 11:45:42;;;;;;;4.78;3.95;;;;;;;9.98;88.99;100557.41;6210273;23;20016;-77
2022/12/20 11:48:15;;;;;;;8.60;3.40;;;;;;;10.02;88.82;100551.28;6214482;23;20019;-78
2022/12/20 11:51:09;;;;;;;5.60;3.97;;;;;;;9.98;88.53;100553.94;6241488;23;20036;-77
2022/12/20 11:53:43;;;;;;;13.80;5.15;;;;;;;9.92;89.10;100553.09;6214707;23;20064;-77
2022/12/20 11:56:18;;;;;;;11.20;4.70;;;;;;;9.87;88.88;100547.03;6212403;23;20016;-76
2022/12/20 11:58:55;;;;;;;5.80;3.75;;;;;;;9.85;89.33;100556.63;6213091;23;20834;-77
2022/12/20 12:01:32;;;;;;;4.22;3.70;;;;;;;9.86;88.77;100550.53;6212933;22;20016;-78
2022/12/20 12:04:14;;;;;;;7.13;3.92;;;;;;;9.85;88.72;100555.78;6212801;23;20728;-77
2022/12/20 12:06:49;;;;;;;20.50;5.72;;;;;;;9.82;88.73;100547.97;6188430;23;20024;-78
2022/12/20 12:09:28;;;;;;;15.98;4.50;;;;;;;9.83;88.86;100542.72;6214972;23;20016;-77
2022/12/20 12:12:12;;;;;;;5.75;3.38;;;;;;;9.84;87.85;100540.97;6188906;23;20012;-76
2022/12/20 12:14:56;;;;;;;4.60;3.28;;;;;;;9.84;87.71;100539.22;6214047;23;20023;-76
2022/12/20 12:17:38;;;;;;;5.75;4.13;;;;;;;9.87;87.20;100533.97;6215248;23;20043;-76
2022/12/20 12:20:49;;;;;;;4.75;3.60;;;;;;;9.88;86.58;100530.47;6213813;23;20020;-77
2022/12/20 12:23:35;;;;;;;6.95;3.15;;;;;;;9.86;87.33;100537.47;6239188;23;20020;-76
2022/12/20 12:26:10;;;;;;;6.85;4.00;;;;;;;9.86;87.11;100532.22;6212781;23;20020;-76
2022/12/20 12:28:37;;;;;;;9.25;4.07;;;;;;;9.88;86.81;100517.41;6213128;23;20111;-76